createdAt,value
2023-03-04T00:00:24.395Z,19.67
2023-03-04T00:02:52.718Z,19.83
2023-03-04T00:05:21.048Z,28.50
2023-03-04T00:07:50.783Z,27.97
2023-03-04T00:10:19.860Z,33.20
2023-03-04T00:12:48.194Z,24.87
2023-03-04T00:15:16.582Z,23.60
2023-03-04T00:17:46.280Z,21.90
2023-03-04T00:20:15.316Z,21.60
2023-03-04T00:22:43.622Z,24.13
2023-03-04T00:25:13.383Z,23.47
2023-03-04T00:27:41.651Z,24.47
2023-03-04T00:30:11.190Z,20.37
2023-03-04T00:32:39.687Z,22.03
2023-03-04T00:35:08.925Z,23.27
2023-03-04T00:37:37.270Z,22.70
2023-03-04T00:40:06.726Z,23.03
2023-03-04T00:42:36.461Z,22.40
2023-03-04T00:45:05.042Z,22.87
2023-03-04T00:47:33.423Z,21.83
2023-03-04T00:50:01.812Z,25.03
2023-03-04T00:52:30.134Z,23.63
2023-03-04T00:54:58.461Z,25.93
2023-03-04T00:57:26.866Z,25.67
2023-03-04T00:59:56.604Z,23.57
2023-03-04T01:02:24.951Z,24.87
2023-03-04T01:04:53.345Z,20.53
2023-03-04T01:07:21.725Z,19.33
2023-03-04T01:09:50.065Z,16.47
2023-03-04T01:12:18.322Z,13.90
2023-03-04T01:14:46.667Z,14.60
2023-03-04T01:17:16.814Z,14.30
2023-03-04T01:19:45.232Z,14.33
2023-03-04T01:22:15.198Z,14.50
2023-03-04T01:24:43.549Z,14.67
2023-03-04T01:27:12.231Z,13.90
2023-03-04T01:29:40.887Z,14.13
2023-03-04T01:32:09.465Z,13.83
2023-03-04T01:34:39.189Z,13.97
2023-03-04T01:37:07.520Z,14.07
2023-03-04T01:39:37.206Z,14.97
2023-03-04T01:42:05.664Z,14.33
2023-03-04T01:44:34.552Z,15.50
2023-03-04T01:47:03.094Z,15.17
2023-03-04T01:49:31.557Z,14.70
2023-03-04T01:52:01.375Z,16.00
2023-03-04T01:54:29.857Z,17.07
2023-03-04T01:57:00.392Z,16.80
2023-03-04T01:59:32.661Z,17.37
2023-03-04T02:02:02.412Z,17.27
2023-03-04T02:04:34.431Z,17.20
2023-03-04T02:07:05.378Z,16.20
2023-03-04T02:09:35.854Z,17.90
2023-03-04T02:12:06.811Z,18.93
2023-03-04T02:14:35.260Z,16.97
2023-03-04T02:17:03.588Z,17.60
2023-03-04T02:19:42.906Z,17.60
2023-03-04T02:22:12.717Z,17.70
2023-03-04T02:24:45.199Z,17.50
2023-03-04T02:27:15.000Z,19.80
2023-03-04T02:29:43.518Z,17.00
2023-03-04T02:32:13.665Z,19.00
2023-03-04T02:34:46.984Z,17.70
2023-03-04T02:37:16.071Z,18.50
2023-03-04T02:39:47.364Z,18.30
2023-03-04T02:42:20.510Z,18.50
2023-03-04T02:44:50.663Z,20.07
2023-03-04T02:47:20.601Z,25.03
2023-03-04T02:49:50.030Z,25.90
2023-03-04T02:52:21.831Z,23.23
2023-03-04T02:54:50.576Z,24.40
2023-03-04T02:57:20.324Z,23.20
2023-03-04T02:59:48.705Z,22.77
2023-03-04T03:02:17.006Z,20.53
2023-03-04T03:04:45.326Z,22.73
2023-03-04T03:07:13.703Z,26.47
2023-03-04T03:09:42.102Z,26.10
2023-03-04T03:12:10.546Z,24.30
2023-03-04T03:14:40.290Z,22.50
2023-03-04T03:17:08.628Z,21.30
2023-03-04T03:19:37.009Z,20.50
2023-03-04T03:22:05.516Z,21.10
2023-03-04T03:24:33.842Z,21.67
2023-03-04T03:27:02.318Z,22.67
2023-03-04T03:29:30.640Z,22.43
2023-03-04T03:32:00.426Z,22.13
2023-03-04T03:34:29.034Z,21.50
2023-03-04T03:36:57.365Z,22.10
2023-03-04T03:39:25.710Z,25.17
2023-03-04T03:41:54.062Z,25.37
2023-03-04T03:44:22.594Z,23.20
2023-03-04T03:46:50.972Z,24.33
2023-03-04T03:49:20.682Z,26.37
2023-03-04T03:51:49.169Z,23.73
2023-03-04T03:54:17.557Z,26.00
2023-03-04T03:56:45.901Z,26.57
2023-03-04T03:59:14.169Z,24.10
2023-03-04T04:01:42.863Z,25.70
2023-03-04T04:04:11.354Z,24.07
2023-03-04T04:06:41.051Z,23.97
2023-03-04T04:09:09.450Z,22.80
2023-03-04T04:11:37.839Z,22.80
2023-03-04T04:14:06.155Z,21.80
2023-03-04T04:16:34.520Z,21.90
2023-03-04T04:19:02.946Z,22.50
2023-03-04T04:21:31.246Z,22.60
2023-03-04T04:24:01.057Z,23.83
2023-03-04T04:26:29.369Z,21.33
2023-03-04T04:28:57.672Z,22.80
2023-03-04T04:31:26.037Z,23.63
2023-03-04T04:33:54.336Z,23.27
2023-03-04T04:36:22.701Z,23.53
2023-03-04T04:38:51.225Z,22.30
2023-03-04T04:41:24.498Z,22.67
2023-03-04T04:43:53.110Z,22.83
2023-03-04T04:46:22.129Z,23.83
2023-03-04T04:48:50.605Z,22.17
2023-03-04T04:51:18.985Z,23.13
2023-03-04T04:53:47.338Z,23.27
2023-03-04T04:56:18.233Z,21.37
2023-03-04T04:58:49.426Z,22.33
2023-03-04T05:01:18.361Z,21.60
2023-03-04T05:03:46.742Z,21.97
2023-03-04T05:06:15.252Z,22.50
2023-03-04T05:08:43.637Z,25.30
2023-03-04T05:11:12.148Z,23.50
2023-03-04T05:13:40.606Z,25.30
2023-03-04T05:16:10.984Z,24.97
2023-03-04T05:18:39.473Z,24.67
2023-03-04T05:21:08.178Z,26.67
2023-03-04T05:23:39.531Z,26.47
2023-03-04T05:26:09.450Z,25.87
2023-03-04T05:28:38.058Z,25.57
2023-03-04T05:31:07.251Z,23.77
2023-03-04T05:33:37.089Z,25.23
2023-03-04T05:36:07.080Z,23.80
2023-03-04T05:38:35.484Z,25.17
2023-03-04T05:41:05.836Z,25.70
2023-03-04T05:43:36.116Z,24.10
2023-03-04T05:46:05.361Z,22.03
2023-03-04T05:48:33.702Z,26.77
2023-03-04T05:51:03.748Z,25.30
2023-03-04T05:53:32.191Z,25.93
2023-03-04T05:56:00.668Z,26.00
2023-03-04T05:58:29.000Z,26.00
2023-03-04T06:01:01.036Z,25.60
2023-03-04T06:03:29.500Z,23.50
2023-03-04T06:05:58.230Z,23.77
2023-03-04T06:08:29.097Z,22.63
2023-03-04T06:10:59.147Z,23.23
2023-03-04T06:13:27.975Z,24.07
2023-03-04T06:15:57.322Z,23.07
2023-03-04T06:18:27.090Z,24.50
2023-03-04T06:20:58.707Z,21.77
2023-03-04T06:23:29.488Z,23.03
2023-03-04T06:25:59.768Z,21.73
2023-03-04T06:28:28.339Z,22.53
2023-03-04T06:30:57.984Z,22.73
2023-03-04T06:33:26.572Z,22.13
2023-03-04T06:35:56.787Z,20.40
2023-03-04T06:38:25.288Z,22.67
2023-03-04T06:40:57.466Z,22.07
2023-03-04T06:43:26.428Z,21.90
2023-03-04T06:45:54.788Z,23.43
2023-03-04T06:48:23.084Z,22.67
2023-03-04T06:50:51.632Z,23.80
2023-03-04T06:53:21.338Z,27.10
2023-03-04T06:55:49.786Z,27.03
2023-03-04T06:58:19.729Z,31.70
2023-03-04T07:00:48.361Z,29.20
2023-03-04T07:03:16.778Z,30.23
2023-03-04T07:05:45.443Z,28.97
2023-03-04T07:08:13.894Z,29.97
2023-03-04T07:10:42.443Z,26.00
2023-03-04T07:13:10.790Z,24.77
2023-03-04T07:15:40.582Z,25.83
2023-03-04T07:18:09.690Z,25.67
2023-03-04T07:20:38.485Z,23.50
2023-03-04T07:23:06.791Z,22.37
2023-03-04T07:25:35.103Z,21.67
2023-03-04T07:28:03.614Z,20.40
2023-03-04T07:30:32.398Z,21.80
2023-03-04T07:33:02.229Z,21.03
2023-03-04T07:35:30.590Z,19.83
2023-03-04T07:37:59.100Z,21.00
2023-03-04T07:40:27.397Z,22.93
2023-03-04T07:42:56.994Z,21.13
2023-03-04T07:45:26.353Z,22.10
2023-03-04T07:47:55.471Z,21.37
2023-03-04T07:50:27.400Z,21.07
2023-03-04T07:52:55.781Z,20.73
2023-03-04T07:55:24.073Z,19.60
2023-03-04T07:57:52.365Z,19.63
2023-03-04T08:00:21.804Z,20.77
2023-03-04T08:02:50.239Z,20.67
2023-03-04T08:05:18.703Z,19.30
2023-03-04T08:07:48.399Z,18.33
2023-03-04T08:10:16.787Z,17.90
2023-03-04T08:12:45.108Z,21.37
2023-03-04T08:15:13.878Z,20.63
2023-03-04T08:17:42.180Z,18.97
2023-03-04T08:20:12.214Z,22.27
2023-03-04T08:22:40.511Z,21.03
2023-03-04T08:25:11.008Z,20.83
2023-03-04T08:27:39.351Z,21.13
2023-03-04T08:30:08.767Z,22.40
2023-03-04T08:32:37.107Z,20.63
2023-03-04T08:35:06.122Z,20.90
2023-03-04T08:37:34.454Z,21.07
2023-03-04T08:40:02.965Z,20.87
2023-03-04T08:42:32.723Z,20.07
2023-03-04T08:45:01.021Z,21.07
2023-03-04T08:47:29.428Z,21.10
2023-03-04T08:49:58.677Z,20.80
2023-03-04T08:52:27.371Z,21.80
2023-03-04T08:54:55.660Z,22.27
2023-03-04T08:57:24.475Z,22.43
2023-03-04T08:59:54.362Z,22.83
2023-03-04T09:02:22.665Z,23.07
2023-03-04T09:04:51.009Z,23.03
2023-03-04T09:07:19.492Z,22.27
2023-03-04T09:09:48.172Z,21.33
2023-03-04T09:12:16.567Z,21.20
2023-03-04T09:14:44.996Z,21.23
2023-03-04T09:17:14.996Z,20.60
2023-03-04T09:19:43.376Z,19.87
2023-03-04T09:22:11.724Z,22.27
2023-03-04T09:24:40.088Z,21.53
2023-03-04T09:27:08.567Z,19.87
2023-03-04T09:29:36.884Z,18.77
2023-03-04T09:32:05.351Z,18.90
2023-03-04T09:34:35.080Z,20.93
2023-03-04T09:37:03.557Z,18.83
2023-03-04T09:39:31.883Z,20.00
2023-03-04T09:42:01.310Z,18.63
2023-03-04T09:44:32.703Z,19.73
2023-03-04T09:47:07.689Z,21.47
2023-03-04T09:49:42.069Z,21.33
2023-03-04T09:52:21.382Z,23.37
2023-03-04T09:55:05.164Z,20.90
2023-03-04T09:57:47.231Z,17.83
2023-03-04T10:00:20.416Z,18.90
2023-03-04T10:03:06.624Z,16.77
2023-03-04T10:05:40.704Z,15.70
2023-03-04T10:08:26.107Z,17.67
2023-03-04T10:10:58.156Z,16.30
2023-03-04T10:13:36.993Z,16.80
2023-03-04T10:16:10.728Z,16.97
2023-03-04T10:18:43.881Z,19.97
2023-03-04T10:21:21.580Z,18.90
2023-03-04T10:23:50.892Z,18.60
2023-03-04T10:26:23.144Z,18.40
2023-03-04T10:28:51.891Z,17.40
2023-03-04T10:31:29.154Z,18.50
2023-03-04T10:33:57.794Z,17.60
2023-03-04T10:36:41.031Z,16.97
2023-03-04T10:39:12.109Z,17.20
2023-03-04T10:41:45.733Z,15.17
2023-03-04T10:44:18.497Z,13.77
2023-03-04T10:46:48.082Z,14.03
2023-03-04T10:49:18.360Z,14.80
2023-03-04T10:51:49.502Z,15.23
2023-03-04T10:54:27.399Z,14.40
2023-03-04T10:57:00.125Z,13.90
2023-03-04T10:59:41.314Z,11.67
2023-03-04T11:02:19.614Z,12.47
2023-03-04T11:04:53.686Z,12.23
2023-03-04T11:07:25.040Z,11.70
2023-03-04T11:09:53.620Z,12.07
2023-03-04T11:12:23.705Z,11.63
2023-03-04T11:14:53.592Z,12.87
2023-03-04T11:17:25.171Z,10.77
2023-03-04T11:19:58.760Z,10.73
2023-03-04T11:22:31.635Z,14.07
2023-03-04T11:25:04.078Z,9.57
2023-03-04T11:27:42.871Z,10.17
2023-03-04T11:30:27.079Z,11.30
2023-03-04T11:33:04.045Z,10.07
2023-03-04T11:35:36.152Z,11.00
2023-03-04T11:38:10.737Z,9.40
2023-03-04T11:40:45.472Z,10.30
2023-03-04T11:43:19.119Z,11.10
2023-03-04T11:46:19.799Z,10.53
2023-03-04T11:48:55.619Z,9.67
2023-03-04T11:51:34.573Z,9.07
2023-03-04T11:54:17.510Z,8.67
2023-03-04T11:56:47.210Z,8.60
2023-03-04T11:59:46.852Z,9.23
2023-03-04T12:02:18.400Z,7.87
2023-03-04T12:05:18.695Z,9.03
2023-03-04T12:08:26.407Z,8.10
2023-03-04T12:11:05.110Z,6.70
2023-03-04T12:14:02.867Z,8.27
2023-03-04T12:16:46.294Z,7.87
2023-03-04T12:19:26.417Z,9.43
2023-03-04T12:22:09.364Z,8.70
2023-03-04T12:25:10.929Z,9.57
2023-03-04T12:27:48.587Z,10.10
2023-03-04T12:30:40.146Z,9.20
2023-03-04T12:33:21.312Z,11.00
2023-03-04T12:36:01.302Z,11.47
2023-03-04T12:38:45.030Z,11.80
2023-03-04T12:41:31.524Z,11.67
2023-03-04T12:44:11.848Z,13.00
2023-03-04T12:46:53.036Z,12.30
2023-03-04T12:49:38.381Z,13.23
2023-03-04T12:52:16.579Z,12.93
2023-03-04T12:54:49.454Z,12.33
2023-03-04T12:57:21.108Z,14.07
2023-03-04T12:59:59.399Z,14.90
2023-03-04T13:02:54.106Z,13.57
2023-03-04T13:05:37.788Z,16.40
2023-03-04T13:08:20.348Z,15.27
2023-03-04T13:10:48.963Z,14.50
2023-03-04T13:13:38.126Z,14.60
2023-03-04T13:16:28.596Z,15.57
2023-03-04T13:18:57.220Z,15.60
2023-03-04T13:21:27.097Z,17.33
2023-03-04T13:23:56.699Z,17.37
2023-03-04T13:26:30.527Z,18.13
2023-03-04T13:29:37.071Z,17.03
2023-03-04T13:32:12.512Z,17.80
2023-03-04T13:34:50.046Z,17.13
2023-03-04T13:37:33.318Z,17.97
2023-03-04T13:40:33.330Z,14.70
2023-03-04T13:43:26.475Z,17.57
2023-03-04T13:45:54.955Z,16.93
2023-03-04T13:48:32.889Z,17.40
2023-03-04T13:51:01.326Z,16.97
2023-03-04T13:53:40.351Z,16.87
2023-03-04T13:56:31.467Z,18.30
2023-03-04T13:59:25.298Z,18.13
2023-03-04T14:02:01.711Z,16.80
2023-03-04T14:04:34.871Z,17.23
2023-03-04T14:07:17.860Z,17.80
2023-03-04T14:09:57.595Z,16.63
2023-03-04T14:12:27.612Z,16.43
2023-03-04T14:14:58.097Z,16.67
2023-03-04T14:17:29.309Z,16.43
2023-03-04T14:20:00.658Z,15.77
2023-03-04T14:22:31.870Z,14.57
2023-03-04T14:25:03.265Z,17.97
2023-03-04T14:27:33.194Z,15.97
2023-03-04T14:30:02.871Z,16.00
2023-03-04T14:32:32.132Z,14.10
2023-03-04T14:35:05.615Z,27.20
2023-03-04T14:37:43.997Z,20.30
2023-03-04T14:40:22.309Z,14.00
2023-03-04T14:42:56.152Z,14.57
2023-03-04T14:45:25.230Z,14.23
2023-03-04T14:47:58.395Z,12.20
2023-03-04T14:50:28.101Z,12.83
2023-03-04T14:53:15.049Z,13.50
2023-03-04T14:55:57.808Z,12.70
2023-03-04T14:58:28.865Z,13.20
2023-03-04T15:01:14.323Z,12.40
2023-03-04T15:03:45.512Z,12.50
2023-03-04T15:06:23.562Z,12.43
2023-03-04T15:08:59.257Z,10.90
2023-03-04T15:11:29.645Z,11.07
2023-03-04T15:13:59.789Z,12.27
2023-03-04T15:16:30.738Z,11.73
2023-03-04T15:19:02.366Z,12.63
2023-03-04T15:21:37.342Z,12.97
2023-03-04T15:24:07.047Z,11.00
2023-03-04T15:26:39.086Z,11.23
2023-03-04T15:29:15.882Z,12.67
2023-03-04T15:31:45.119Z,11.63
2023-03-04T15:34:15.448Z,11.63
2023-03-04T15:36:48.571Z,10.90
2023-03-04T15:39:19.435Z,11.20
2023-03-04T15:41:48.526Z,9.70
2023-03-04T15:44:17.143Z,11.00
2023-03-04T15:46:45.469Z,11.53
2023-03-04T15:49:14.024Z,16.23
2023-03-04T15:51:42.793Z,16.67
2023-03-04T15:54:15.206Z,19.63
2023-03-04T15:56:44.243Z,15.17
2023-03-04T15:59:14.433Z,16.00
2023-03-04T16:01:42.861Z,24.80
2023-03-04T16:04:14.616Z,29.60
2023-03-04T16:06:44.013Z,28.53
2023-03-04T16:09:16.897Z,28.30
2023-03-04T16:11:47.781Z,16.53
2023-03-04T16:14:17.226Z,14.40
2023-03-04T16:16:47.079Z,12.60
2023-03-04T16:19:15.562Z,11.87
2023-03-04T16:21:43.873Z,16.73
2023-03-04T16:24:18.471Z,13.50
2023-03-04T16:26:47.453Z,12.60
2023-03-04T16:29:16.948Z,14.00
2023-03-04T16:31:45.490Z,10.80
2023-03-04T16:34:14.225Z,9.70
2023-03-04T16:36:42.714Z,10.33
2023-03-04T16:39:20.875Z,8.77
2023-03-04T16:41:49.444Z,10.10
2023-03-04T16:44:17.758Z,10.73
2023-03-04T16:46:46.291Z,14.00
2023-03-04T16:49:14.682Z,19.30
2023-03-04T16:51:46.806Z,14.70
2023-03-04T16:54:20.164Z,17.77
2023-03-04T16:56:48.490Z,20.00
2023-03-04T16:59:18.014Z,21.30
2023-03-04T17:01:46.598Z,24.00
2023-03-04T17:04:14.985Z,28.07
2023-03-04T17:06:43.656Z,24.83
2023-03-04T17:09:12.371Z,36.87
2023-03-04T17:11:42.099Z,36.17
2023-03-04T17:14:10.599Z,36.47
2023-03-04T17:16:38.916Z,40.57
2023-03-04T17:19:07.241Z,43.00
2023-03-04T17:21:35.575Z,39.13
2023-03-04T17:24:04.867Z,35.17
2023-03-04T17:26:33.517Z,34.90
2023-03-04T17:29:03.275Z,33.57
2023-03-04T17:31:31.597Z,32.63
2023-03-04T17:34:00.043Z,31.10
2023-03-04T17:36:28.409Z,43.03
2023-03-04T17:38:57.229Z,50.43
2023-03-04T17:41:26.715Z,46.20
2023-03-04T17:43:57.036Z,40.57
2023-03-04T17:46:30.025Z,43.87
2023-03-04T17:49:00.409Z,50.00
2023-03-04T17:51:34.075Z,40.07
2023-03-04T17:54:02.885Z,37.00
2023-03-04T17:56:34.149Z,42.37
2023-03-04T17:59:05.793Z,42.30
2023-03-04T18:01:35.717Z,41.67
2023-03-04T18:04:04.596Z,31.83
2023-03-04T18:06:33.131Z,30.70
2023-03-04T18:09:01.452Z,29.83
2023-03-04T18:11:30.101Z,26.40
2023-03-04T18:13:58.907Z,27.00
2023-03-04T18:16:29.060Z,28.13
2023-03-04T18:19:01.224Z,29.43
2023-03-04T18:21:30.670Z,29.00
2023-03-04T18:23:59.634Z,27.90
2023-03-04T18:26:28.174Z,27.03
2023-03-04T18:28:57.684Z,27.57
2023-03-04T18:31:31.653Z,29.20
2023-03-04T18:34:02.838Z,28.33
2023-03-04T18:36:31.284Z,24.43
2023-03-04T18:38:59.950Z,24.17
2023-03-04T18:41:28.816Z,24.10
2023-03-04T18:43:57.126Z,22.77
2023-03-04T18:46:34.566Z,23.70
2023-03-04T18:49:08.782Z,22.87
2023-03-04T18:51:37.137Z,20.93
2023-03-04T18:54:07.015Z,23.20
2023-03-04T18:56:40.184Z,19.17
2023-03-04T18:59:12.821Z,19.33
2023-03-04T19:01:41.641Z,19.10
2023-03-04T19:04:11.835Z,19.33
2023-03-04T19:06:40.545Z,20.13
2023-03-04T19:09:08.984Z,23.27
2023-03-04T19:11:37.335Z,22.87
2023-03-04T19:14:06.004Z,26.03
2023-03-04T19:16:34.396Z,21.40
2023-03-04T19:19:02.760Z,20.70
2023-03-04T19:21:33.955Z,22.00
2023-03-04T19:24:02.402Z,23.77
2023-03-04T19:26:30.713Z,22.30
2023-03-04T19:28:59.082Z,25.70
2023-03-04T19:31:27.430Z,28.73
2023-03-04T19:33:55.833Z,33.47
2023-03-04T19:36:25.506Z,28.50
2023-03-04T19:38:56.092Z,28.13
2023-03-04T19:41:24.826Z,28.40
2023-03-04T19:43:54.407Z,29.50
2023-03-04T19:46:23.032Z,28.73
2023-03-04T19:48:51.419Z,32.93
2023-03-04T19:51:22.054Z,28.37
2023-03-04T19:53:51.737Z,25.93
2023-03-04T19:56:22.205Z,27.47
2023-03-04T19:58:50.653Z,26.37
2023-03-04T20:01:26.057Z,23.70
2023-03-04T20:03:54.629Z,24.00
2023-03-04T20:06:24.128Z,24.03
2023-03-04T20:08:52.512Z,25.47
2023-03-04T20:11:22.323Z,24.43
2023-03-04T20:13:50.672Z,22.30
2023-03-04T20:16:19.097Z,20.60
2023-03-04T20:18:47.641Z,23.27
2023-03-04T20:21:16.110Z,21.83
2023-03-04T20:23:44.559Z,21.77
2023-03-04T20:26:13.243Z,22.33
2023-03-04T20:28:42.961Z,22.70
2023-03-04T20:31:13.034Z,20.63
2023-03-04T20:33:42.128Z,21.40
2023-03-04T20:36:10.684Z,22.27
2023-03-04T20:38:39.437Z,22.83
2023-03-04T20:41:07.874Z,21.90
2023-03-04T20:43:36.361Z,20.57
2023-03-04T20:46:28.878Z,21.30
2023-03-04T20:48:58.592Z,19.97
2023-03-04T20:51:27.294Z,18.03
2023-03-04T20:53:56.668Z,18.60
2023-03-04T20:56:26.017Z,16.13
2023-03-04T20:58:55.272Z,18.20
2023-03-04T21:01:24.862Z,15.70
2023-03-04T21:03:54.997Z,15.90
2023-03-04T21:06:25.214Z,16.23
2023-03-04T21:08:53.780Z,16.20
2023-03-04T21:11:23.486Z,15.97
2023-03-04T21:13:56.522Z,14.63
2023-03-04T21:16:27.020Z,14.97
2023-03-04T21:18:57.397Z,16.37
2023-03-04T21:21:28.021Z,16.70
2023-03-04T21:23:58.265Z,17.17
2023-03-04T21:26:26.906Z,16.87
2023-03-04T21:28:55.777Z,17.50
2023-03-04T21:31:26.339Z,16.37
2023-03-04T21:33:58.760Z,16.30
2023-03-04T21:36:27.881Z,16.80
2023-03-04T21:38:56.207Z,16.60
2023-03-04T21:41:25.919Z,16.53
2023-03-04T21:43:54.465Z,16.70
2023-03-04T21:46:23.508Z,17.20
2023-03-04T21:48:51.812Z,16.83
2023-03-04T21:51:21.528Z,17.17
2023-03-04T21:53:49.968Z,17.87
2023-03-04T21:56:18.311Z,18.10
2023-03-04T21:58:46.648Z,18.40
2023-03-04T22:01:16.997Z,18.60
2023-03-04T22:03:45.689Z,19.60
2023-03-04T22:06:14.315Z,20.00
2023-03-04T22:08:44.270Z,19.47
2023-03-04T22:11:13.147Z,20.60
2023-03-04T22:13:41.907Z,19.63
2023-03-04T22:16:11.175Z,19.33
2023-03-04T22:18:40.844Z,21.97
2023-03-04T22:21:11.267Z,21.57
2023-03-04T22:23:40.005Z,20.77
2023-03-04T22:26:12.465Z,21.17
2023-03-04T22:28:41.410Z,21.90
2023-03-04T22:31:17.608Z,22.10
2023-03-04T22:33:46.390Z,22.17
2023-03-04T22:36:14.843Z,23.13
2023-03-04T22:38:44.634Z,24.00
2023-03-04T22:41:19.097Z,24.97
2023-03-04T22:43:47.865Z,28.03
2023-03-04T22:46:18.097Z,27.33
2023-03-04T22:48:46.477Z,25.87
2023-03-04T22:51:14.961Z,25.60
2023-03-04T22:53:44.019Z,24.67
2023-03-04T22:56:13.999Z,24.90
2023-03-04T22:58:44.885Z,25.13
2023-03-04T23:01:14.709Z,22.23
2023-03-04T23:03:44.605Z,22.60
2023-03-04T23:06:14.718Z,18.53
2023-03-04T23:08:46.008Z,16.27
2023-03-04T23:11:16.402Z,16.27
2023-03-04T23:13:46.128Z,13.33
2023-03-04T23:16:15.356Z,13.30
2023-03-04T23:18:46.677Z,11.27
2023-03-04T23:21:16.917Z,11.70
2023-03-04T23:23:45.293Z,10.97
2023-03-04T23:26:18.088Z,11.60
2023-03-04T23:28:48.134Z,8.93
2023-03-04T23:31:16.848Z,8.70
2023-03-04T23:33:46.932Z,9.23
2023-03-04T23:36:17.328Z,8.37
2023-03-04T23:38:47.013Z,9.03
2023-03-04T23:41:16.534Z,9.20
2023-03-04T23:43:45.069Z,10.23
2023-03-04T23:46:15.162Z,9.47
2023-03-04T23:48:46.981Z,9.07
2023-03-04T23:51:15.998Z,9.27
2023-03-04T23:53:44.803Z,10.20
2023-03-04T23:56:14.626Z,8.60
2023-03-04T23:58:43.665Z,8.47
